<?xml version="1.0" encoding="UTF-8" standalone="no" ?>
<gpx xmlns="http://www.topografix.com/GPX/1/1" xmlns:xsi="http://www.w3.org/2001/XMLSchema-instance" xsi:schemaLocation="http://www.topografix.com/GPX/1/1 http://www.topografix.com/GPX/1/1/gpx.xsd" version="1.1" creator="VisuGPX - https://www.visugpx.com">
  <metadata>
    <name>Catllar, Saint Jacques de Calahons, Roc de la Rond</name>
    <desc><![CDATA[TOPO sur notre site:
https://randonnees-pyrenees-orientales.e-monsite.com/pages/pyrenees-orientales/conflent-bas/catllar-saint-jacques-de-calahons-roc-de-la-rondola-cortal-d-en-raurel-serramadors-carriere.html]]></desc>
  </metadata>
  <trk>
    <name><![CDATA[8537702-Catllar, Saint Jacques de Calahons, Roc de la Rond]]></name>
    <extensions>
      <line xmlns="http://www.topografix.com/GPX/gpx_style/0/2">
        <color>0000FF</color>
        <width>4</width>
      </line>
    </extensions>
    <trkseg>
      <trkpt lat="42.6334" lon="2.41966">
        <ele>334</ele>
        <time>2022-10-01T14:51:07Z</time>
      </trkpt>
      <trkpt lat="42.63354" lon="2.41989">
        <ele>336</ele>
        <time>2022-10-01T14:51:36Z</time>
      </trkpt>
      <trkpt lat="42.6337" lon="2.41998">
        <ele>338</ele>
        <time>2022-10-01T14:51:59Z</time>
      </trkpt>
      <trkpt lat="42.63371" lon="2.41996">
        <ele>338</ele>
        <time>2022-10-01T14:52:02Z</time>
      </trkpt>
      <trkpt lat="42.63373" lon="2.41999">
        <ele>338</ele>
        <time>2022-10-01T14:52:06Z</time>
      </trkpt>
      <trkpt lat="42.63374" lon="2.41995">
        <ele>338</ele>
        <time>2022-10-01T14:52:10Z</time>
      </trkpt>
      <trkpt lat="42.63374" lon="2.41998">
        <ele>338</ele>
        <time>2022-10-01T14:52:13Z</time>
      </trkpt>
      <trkpt lat="42.63371" lon="2.41996">
        <ele>338</ele>
        <time>2022-10-01T14:52:17Z</time>
      </trkpt>
      <trkpt lat="42.63373" lon="2.41995">
        <ele>338</ele>
        <time>2022-10-01T14:52:20Z</time>
      </trkpt>
      <trkpt lat="42.63373" lon="2.42002">
        <ele>338</ele>
        <time>2022-10-01T14:52:27Z</time>
      </trkpt>
      <trkpt lat="42.63375" lon="2.41996">
        <ele>338</ele>
        <time>2022-10-01T14:52:33Z</time>
      </trkpt>
      <trkpt lat="42.63386" lon="2.41988">
        <ele>339</ele>
        <time>2022-10-01T14:52:50Z</time>
      </trkpt>
      <trkpt lat="42.63375" lon="2.41997">
        <ele>338</ele>
        <time>2022-10-01T14:53:07Z</time>
      </trkpt>
      <trkpt lat="42.63379" lon="2.42018">
        <ele>338</ele>
        <time>2022-10-01T14:53:29Z</time>
      </trkpt>
      <trkpt lat="42.63363" lon="2.42043">
        <ele>336</ele>
        <time>2022-10-01T14:54:01Z</time>
      </trkpt>
      <trkpt lat="42.63365" lon="2.42044">
        <ele>337</ele>
        <time>2022-10-01T14:54:04Z</time>
      </trkpt>
      <trkpt lat="42.63362" lon="2.42051">
        <ele>336</ele>
        <time>2022-10-01T14:54:12Z</time>
      </trkpt>
      <trkpt lat="42.63366" lon="2.42077">
        <ele>336</ele>
        <time>2022-10-01T14:54:38Z</time>
      </trkpt>
      <trkpt lat="42.63365" lon="2.42107">
        <ele>336</ele>
        <time>2022-10-01T14:55:07Z</time>
      </trkpt>
      <trkpt lat="42.63369" lon="2.42117">
        <ele>337</ele>
        <time>2022-10-01T14:55:19Z</time>
      </trkpt>
      <trkpt lat="42.63366" lon="2.42131">
        <ele>337</ele>
        <time>2022-10-01T14:55:33Z</time>
      </trkpt>
      <trkpt lat="42.63375" lon="2.42152">
        <ele>337</ele>
        <time>2022-10-01T14:55:57Z</time>
      </trkpt>
      <trkpt lat="42.63378" lon="2.42176">
        <ele>337</ele>
        <time>2022-10-01T14:56:21Z</time>
      </trkpt>
      <trkpt lat="42.63394" lon="2.42207">
        <ele>337</ele>
        <time>2022-10-01T14:56:58Z</time>
      </trkpt>
      <trkpt lat="42.63393" lon="2.42282">
        <ele>334</ele>
        <time>2022-10-01T14:58:12Z</time>
      </trkpt>
      <trkpt lat="42.63395" lon="2.42286">
        <ele>334</ele>
        <time>2022-10-01T14:58:16Z</time>
      </trkpt>
      <trkpt lat="42.63393" lon="2.42292">
        <ele>333</ele>
        <time>2022-10-01T14:58:23Z</time>
      </trkpt>
      <trkpt lat="42.63394" lon="2.423">
        <ele>333</ele>
        <time>2022-10-01T14:58:31Z</time>
      </trkpt>
      <trkpt lat="42.63388" lon="2.42323">
        <ele>331</ele>
        <time>2022-10-01T14:58:55Z</time>
      </trkpt>
      <trkpt lat="42.63392" lon="2.42336">
        <ele>330</ele>
        <time>2022-10-01T14:59:09Z</time>
      </trkpt>
      <trkpt lat="42.63397" lon="2.42337">
        <ele>330</ele>
        <time>2022-10-01T14:59:15Z</time>
      </trkpt>
      <trkpt lat="42.63404" lon="2.42343">
        <ele>330</ele>
        <time>2022-10-01T14:59:26Z</time>
      </trkpt>
      <trkpt lat="42.63417" lon="2.42367">
        <ele>328</ele>
        <time>2022-10-01T14:59:56Z</time>
      </trkpt>
      <trkpt lat="42.6343" lon="2.42399">
        <ele>327</ele>
        <time>2022-10-01T15:00:31Z</time>
      </trkpt>
      <trkpt lat="42.6343" lon="2.42416">
        <ele>325</ele>
        <time>2022-10-01T15:00:48Z</time>
      </trkpt>
      <trkpt lat="42.63434" lon="2.4243">
        <ele>326</ele>
        <time>2022-10-01T15:01:03Z</time>
      </trkpt>
      <trkpt lat="42.63447" lon="2.42437">
        <ele>329</ele>
        <time>2022-10-01T15:01:22Z</time>
      </trkpt>
      <trkpt lat="42.63455" lon="2.42434">
        <ele>330</ele>
        <time>2022-10-01T15:01:33Z</time>
      </trkpt>
      <trkpt lat="42.63457" lon="2.42439">
        <ele>331</ele>
        <time>2022-10-01T15:01:38Z</time>
      </trkpt>
      <trkpt lat="42.63447" lon="2.42458">
        <ele>330</ele>
        <time>2022-10-01T15:02:01Z</time>
      </trkpt>
      <trkpt lat="42.63453" lon="2.42463">
        <ele>331</ele>
        <time>2022-10-01T15:02:11Z</time>
      </trkpt>
      <trkpt lat="42.63461" lon="2.42448">
        <ele>332</ele>
        <time>2022-10-01T15:02:29Z</time>
      </trkpt>
      <trkpt lat="42.63474" lon="2.42447">
        <ele>335</ele>
        <time>2022-10-01T15:02:46Z</time>
      </trkpt>
      <trkpt lat="42.63483" lon="2.42449">
        <ele>337</ele>
        <time>2022-10-01T15:02:58Z</time>
      </trkpt>
      <trkpt lat="42.63503" lon="2.4246">
        <ele>342</ele>
        <time>2022-10-01T15:03:27Z</time>
      </trkpt>
      <trkpt lat="42.63537" lon="2.42489">
        <ele>352</ele>
        <time>2022-10-01T15:04:21Z</time>
      </trkpt>
      <trkpt lat="42.63548" lon="2.42491">
        <ele>355</ele>
        <time>2022-10-01T15:04:35Z</time>
      </trkpt>
      <trkpt lat="42.63564" lon="2.42489">
        <ele>358</ele>
        <time>2022-10-01T15:04:57Z</time>
      </trkpt>
      <trkpt lat="42.63576" lon="2.42484">
        <ele>360</ele>
        <time>2022-10-01T15:05:14Z</time>
      </trkpt>
      <trkpt lat="42.63605" lon="2.42478">
        <ele>367</ele>
        <time>2022-10-01T15:05:53Z</time>
      </trkpt>
      <trkpt lat="42.63612" lon="2.42463">
        <ele>367</ele>
        <time>2022-10-01T15:06:10Z</time>
      </trkpt>
      <trkpt lat="42.63611" lon="2.4246">
        <ele>367</ele>
        <time>2022-10-01T15:06:13Z</time>
      </trkpt>
      <trkpt lat="42.63619" lon="2.42463">
        <ele>369</ele>
        <time>2022-10-01T15:06:25Z</time>
      </trkpt>
      <trkpt lat="42.63624" lon="2.4246">
        <ele>370</ele>
        <time>2022-10-01T15:06:32Z</time>
      </trkpt>
      <trkpt lat="42.63633" lon="2.42459">
        <ele>373</ele>
        <time>2022-10-01T15:06:44Z</time>
      </trkpt>
      <trkpt lat="42.63669" lon="2.42475">
        <ele>384</ele>
        <time>2022-10-01T15:07:34Z</time>
      </trkpt>
      <trkpt lat="42.63681" lon="2.4249">
        <ele>388</ele>
        <time>2022-10-01T15:07:56Z</time>
      </trkpt>
      <trkpt lat="42.63682" lon="2.42497">
        <ele>389</ele>
        <time>2022-10-01T15:08:03Z</time>
      </trkpt>
      <trkpt lat="42.63686" lon="2.42498">
        <ele>390</ele>
        <time>2022-10-01T15:08:09Z</time>
      </trkpt>
      <trkpt lat="42.63695" lon="2.42507">
        <ele>392</ele>
        <time>2022-10-01T15:08:23Z</time>
      </trkpt>
      <trkpt lat="42.63698" lon="2.42522">
        <ele>394</ele>
        <time>2022-10-01T15:08:39Z</time>
      </trkpt>
      <trkpt lat="42.63732" lon="2.42549">
        <ele>405</ele>
        <time>2022-10-01T15:09:31Z</time>
      </trkpt>
      <trkpt lat="42.63741" lon="2.42552">
        <ele>407</ele>
        <time>2022-10-01T15:09:44Z</time>
      </trkpt>
      <trkpt lat="42.63769" lon="2.42546">
        <ele>412</ele>
        <time>2022-10-01T15:10:21Z</time>
      </trkpt>
      <trkpt lat="42.63794" lon="2.42546">
        <ele>418</ele>
        <time>2022-10-01T15:10:55Z</time>
      </trkpt>
      <trkpt lat="42.63816" lon="2.42542">
        <ele>422</ele>
        <time>2022-10-01T15:11:24Z</time>
      </trkpt>
      <trkpt lat="42.63831" lon="2.42537">
        <ele>425</ele>
        <time>2022-10-01T15:11:45Z</time>
      </trkpt>
      <trkpt lat="42.63833" lon="2.42532">
        <ele>425</ele>
        <time>2022-10-01T15:11:51Z</time>
      </trkpt>
      <trkpt lat="42.63835" lon="2.42537">
        <ele>426</ele>
        <time>2022-10-01T15:11:56Z</time>
      </trkpt>
      <trkpt lat="42.63866" lon="2.42542">
        <ele>434</ele>
        <time>2022-10-01T15:12:38Z</time>
      </trkpt>
      <trkpt lat="42.63872" lon="2.42537">
        <ele>435</ele>
        <time>2022-10-01T15:12:47Z</time>
      </trkpt>
      <trkpt lat="42.63883" lon="2.42536">
        <ele>438</ele>
        <time>2022-10-01T15:13:02Z</time>
      </trkpt>
      <trkpt lat="42.63893" lon="2.42529">
        <ele>440</ele>
        <time>2022-10-01T15:13:17Z</time>
      </trkpt>
      <trkpt lat="42.63941" lon="2.4252">
        <ele>450</ele>
        <time>2022-10-01T15:14:22Z</time>
      </trkpt>
      <trkpt lat="42.63962" lon="2.42519">
        <ele>453</ele>
        <time>2022-10-01T15:14:50Z</time>
      </trkpt>
      <trkpt lat="42.64018" lon="2.42523">
        <ele>461</ele>
        <time>2022-10-01T15:16:05Z</time>
      </trkpt>
      <trkpt lat="42.64042" lon="2.42528">
        <ele>463</ele>
        <time>2022-10-01T15:16:37Z</time>
      </trkpt>
      <trkpt lat="42.64068" lon="2.42524">
        <ele>465</ele>
        <time>2022-10-01T15:17:12Z</time>
      </trkpt>
      <trkpt lat="42.64072" lon="2.42521">
        <ele>466</ele>
        <time>2022-10-01T15:17:18Z</time>
      </trkpt>
      <trkpt lat="42.64093" lon="2.42517">
        <ele>469</ele>
        <time>2022-10-01T15:17:46Z</time>
      </trkpt>
      <trkpt lat="42.64107" lon="2.4251">
        <ele>472</ele>
        <time>2022-10-01T15:18:06Z</time>
      </trkpt>
      <trkpt lat="42.64118" lon="2.425">
        <ele>475</ele>
        <time>2022-10-01T15:18:24Z</time>
      </trkpt>
      <trkpt lat="42.64148" lon="2.42501">
        <ele>480</ele>
        <time>2022-10-01T15:19:04Z</time>
      </trkpt>
      <trkpt lat="42.64159" lon="2.42496">
        <ele>482</ele>
        <time>2022-10-01T15:19:19Z</time>
      </trkpt>
      <trkpt lat="42.64171" lon="2.42477">
        <ele>481</ele>
        <time>2022-10-01T15:19:44Z</time>
      </trkpt>
      <trkpt lat="42.64177" lon="2.42472">
        <ele>482</ele>
        <time>2022-10-01T15:19:53Z</time>
      </trkpt>
      <trkpt lat="42.64198" lon="2.42476">
        <ele>487</ele>
        <time>2022-10-01T15:20:22Z</time>
      </trkpt>
      <trkpt lat="42.64211" lon="2.42465">
        <ele>489</ele>
        <time>2022-10-01T15:20:42Z</time>
      </trkpt>
      <trkpt lat="42.64222" lon="2.42469">
        <ele>492</ele>
        <time>2022-10-01T15:20:57Z</time>
      </trkpt>
      <trkpt lat="42.64233" lon="2.42458">
        <ele>495</ele>
        <time>2022-10-01T15:21:15Z</time>
      </trkpt>
      <trkpt lat="42.64241" lon="2.42443">
        <ele>497</ele>
        <time>2022-10-01T15:21:34Z</time>
      </trkpt>
      <trkpt lat="42.64241" lon="2.42438">
        <ele>497</ele>
        <time>2022-10-01T15:21:39Z</time>
      </trkpt>
      <trkpt lat="42.64249" lon="2.4244">
        <ele>499</ele>
        <time>2022-10-01T15:21:49Z</time>
      </trkpt>
      <trkpt lat="42.64271" lon="2.42436">
        <ele>503</ele>
        <time>2022-10-01T15:22:19Z</time>
      </trkpt>
      <trkpt lat="42.6429" lon="2.42443">
        <ele>506</ele>
        <time>2022-10-01T15:22:45Z</time>
      </trkpt>
      <trkpt lat="42.64301" lon="2.42441">
        <ele>508</ele>
        <time>2022-10-01T15:23:00Z</time>
      </trkpt>
      <trkpt lat="42.64353" lon="2.424">
        <ele>517</ele>
        <time>2022-10-01T15:24:20Z</time>
      </trkpt>
      <trkpt lat="42.64365" lon="2.42388">
        <ele>517</ele>
        <time>2022-10-01T15:24:40Z</time>
      </trkpt>
      <trkpt lat="42.64394" lon="2.42373">
        <ele>519</ele>
        <time>2022-10-01T15:25:22Z</time>
      </trkpt>
      <trkpt lat="42.64415" lon="2.42352">
        <ele>521</ele>
        <time>2022-10-01T15:25:56Z</time>
      </trkpt>
      <trkpt lat="42.64426" lon="2.42347">
        <ele>522</ele>
        <time>2022-10-01T15:26:12Z</time>
      </trkpt>
      <trkpt lat="42.64431" lon="2.42348">
        <ele>523</ele>
        <time>2022-10-01T15:26:19Z</time>
      </trkpt>
      <trkpt lat="42.64476" lon="2.4238">
        <ele>528</ele>
        <time>2022-10-01T15:27:26Z</time>
      </trkpt>
      <trkpt lat="42.64493" lon="2.42386">
        <ele>530</ele>
        <time>2022-10-01T15:27:50Z</time>
      </trkpt>
      <trkpt lat="42.64518" lon="2.4239">
        <ele>532</ele>
        <time>2022-10-01T15:28:23Z</time>
      </trkpt>
      <trkpt lat="42.64539" lon="2.42387">
        <ele>534</ele>
        <time>2022-10-01T15:28:52Z</time>
      </trkpt>
      <trkpt lat="42.64546" lon="2.42389">
        <ele>534</ele>
        <time>2022-10-01T15:29:01Z</time>
      </trkpt>
      <trkpt lat="42.64565" lon="2.42406">
        <ele>534</ele>
        <time>2022-10-01T15:29:32Z</time>
      </trkpt>
      <trkpt lat="42.64582" lon="2.42415">
        <ele>535</ele>
        <time>2022-10-01T15:29:56Z</time>
      </trkpt>
      <trkpt lat="42.64591" lon="2.4243">
        <ele>535</ele>
        <time>2022-10-01T15:30:15Z</time>
      </trkpt>
      <trkpt lat="42.64591" lon="2.42438">
        <ele>534</ele>
        <time>2022-10-01T15:30:23Z</time>
      </trkpt>
      <trkpt lat="42.64593" lon="2.42439">
        <ele>534</ele>
        <time>2022-10-01T15:30:26Z</time>
      </trkpt>
      <trkpt lat="42.64589" lon="2.42443">
        <ele>534</ele>
        <time>2022-10-01T15:30:32Z</time>
      </trkpt>
      <trkpt lat="42.64586" lon="2.42455">
        <ele>534</ele>
        <time>2022-10-01T15:30:45Z</time>
      </trkpt>
      <trkpt lat="42.64586" lon="2.42451">
        <ele>534</ele>
        <time>2022-10-01T15:30:49Z</time>
      </trkpt>
      <trkpt lat="42.64592" lon="2.42439">
        <ele>534</ele>
        <time>2022-10-01T15:31:03Z</time>
      </trkpt>
      <trkpt lat="42.64589" lon="2.42444">
        <ele>534</ele>
        <time>2022-10-01T15:31:09Z</time>
      </trkpt>
      <trkpt lat="42.64587" lon="2.42457">
        <ele>534</ele>
        <time>2022-10-01T15:31:22Z</time>
      </trkpt>
      <trkpt lat="42.64627" lon="2.42495">
        <ele>529</ele>
        <time>2022-10-01T15:32:27Z</time>
      </trkpt>
      <trkpt lat="42.64637" lon="2.42497">
        <ele>527</ele>
        <time>2022-10-01T15:32:41Z</time>
      </trkpt>
      <trkpt lat="42.64672" lon="2.42521">
        <ele>521</ele>
        <time>2022-10-01T15:33:33Z</time>
      </trkpt>
      <trkpt lat="42.64704" lon="2.42521">
        <ele>520</ele>
        <time>2022-10-01T15:34:16Z</time>
      </trkpt>
      <trkpt lat="42.64725" lon="2.42514">
        <ele>520</ele>
        <time>2022-10-01T15:34:45Z</time>
      </trkpt>
      <trkpt lat="42.64735" lon="2.42514">
        <ele>519</ele>
        <time>2022-10-01T15:34:58Z</time>
      </trkpt>
      <trkpt lat="42.64775" lon="2.42589">
        <ele>515</ele>
        <time>2022-10-01T15:36:29Z</time>
      </trkpt>
      <trkpt lat="42.64781" lon="2.42593">
        <ele>516</ele>
        <time>2022-10-01T15:36:38Z</time>
      </trkpt>
      <trkpt lat="42.64791" lon="2.42606">
        <ele>517</ele>
        <time>2022-10-01T15:36:56Z</time>
      </trkpt>
      <trkpt lat="42.64802" lon="2.42608">
        <ele>518</ele>
        <time>2022-10-01T15:37:11Z</time>
      </trkpt>
      <trkpt lat="42.6481" lon="2.42615">
        <ele>519</ele>
        <time>2022-10-01T15:37:24Z</time>
      </trkpt>
      <trkpt lat="42.64817" lon="2.42641">
        <ele>521</ele>
        <time>2022-10-01T15:37:51Z</time>
      </trkpt>
      <trkpt lat="42.64818" lon="2.42656">
        <ele>521</ele>
        <time>2022-10-01T15:38:06Z</time>
      </trkpt>
      <trkpt lat="42.64813" lon="2.4267">
        <ele>521</ele>
        <time>2022-10-01T15:38:21Z</time>
      </trkpt>
      <trkpt lat="42.64844" lon="2.42681">
        <ele>524</ele>
        <time>2022-10-01T15:39:04Z</time>
      </trkpt>
      <trkpt lat="42.64865" lon="2.42685">
        <ele>526</ele>
        <time>2022-10-01T15:39:32Z</time>
      </trkpt>
      <trkpt lat="42.64877" lon="2.42692">
        <ele>526</ele>
        <time>2022-10-01T15:39:50Z</time>
      </trkpt>
      <trkpt lat="42.64879" lon="2.4269">
        <ele>526</ele>
        <time>2022-10-01T15:39:53Z</time>
      </trkpt>
      <trkpt lat="42.64881" lon="2.42693">
        <ele>527</ele>
        <time>2022-10-01T15:39:57Z</time>
      </trkpt>
      <trkpt lat="42.64876" lon="2.42704">
        <ele>526</ele>
        <time>2022-10-01T15:40:09Z</time>
      </trkpt>
      <trkpt lat="42.64872" lon="2.42698">
        <ele>526</ele>
        <time>2022-10-01T15:40:17Z</time>
      </trkpt>
      <trkpt lat="42.64874" lon="2.42694">
        <ele>526</ele>
        <time>2022-10-01T15:40:22Z</time>
      </trkpt>
      <trkpt lat="42.64875" lon="2.42709">
        <ele>526</ele>
        <time>2022-10-01T15:40:37Z</time>
      </trkpt>
      <trkpt lat="42.64867" lon="2.42722">
        <ele>526</ele>
        <time>2022-10-01T15:40:54Z</time>
      </trkpt>
      <trkpt lat="42.64856" lon="2.42715">
        <ele>525</ele>
        <time>2022-10-01T15:41:10Z</time>
      </trkpt>
      <trkpt lat="42.64856" lon="2.42705">
        <ele>525</ele>
        <time>2022-10-01T15:41:20Z</time>
      </trkpt>
      <trkpt lat="42.64865" lon="2.42694">
        <ele>526</ele>
        <time>2022-10-01T15:41:36Z</time>
      </trkpt>
      <trkpt lat="42.64871" lon="2.427">
        <ele>526</ele>
        <time>2022-10-01T15:41:46Z</time>
      </trkpt>
      <trkpt lat="42.64877" lon="2.427">
        <ele>526</ele>
        <time>2022-10-01T15:41:54Z</time>
      </trkpt>
      <trkpt lat="42.64881" lon="2.42694">
        <ele>527</ele>
        <time>2022-10-01T15:42:02Z</time>
      </trkpt>
      <trkpt lat="42.64883" lon="2.42697">
        <ele>527</ele>
        <time>2022-10-01T15:42:06Z</time>
      </trkpt>
      <trkpt lat="42.64903" lon="2.42693">
        <ele>528</ele>
        <time>2022-10-01T15:42:33Z</time>
      </trkpt>
      <trkpt lat="42.6491" lon="2.42691">
        <ele>528</ele>
        <time>2022-10-01T15:42:42Z</time>
      </trkpt>
      <trkpt lat="42.64919" lon="2.42681">
        <ele>530</ele>
        <time>2022-10-01T15:42:58Z</time>
      </trkpt>
      <trkpt lat="42.64921" lon="2.42682">
        <ele>530</ele>
        <time>2022-10-01T15:43:01Z</time>
      </trkpt>
      <trkpt lat="42.6492" lon="2.42684">
        <ele>530</ele>
        <time>2022-10-01T15:43:03Z</time>
      </trkpt>
      <trkpt lat="42.64922" lon="2.42673">
        <ele>531</ele>
        <time>2022-10-01T15:43:14Z</time>
      </trkpt>
      <trkpt lat="42.64941" lon="2.42637">
        <ele>536</ele>
        <time>2022-10-01T15:43:58Z</time>
      </trkpt>
      <trkpt lat="42.64957" lon="2.42618">
        <ele>539</ele>
        <time>2022-10-01T15:44:26Z</time>
      </trkpt>
      <trkpt lat="42.64983" lon="2.42597">
        <ele>545</ele>
        <time>2022-10-01T15:45:06Z</time>
      </trkpt>
      <trkpt lat="42.64987" lon="2.42589">
        <ele>546</ele>
        <time>2022-10-01T15:45:16Z</time>
      </trkpt>
      <trkpt lat="42.65004" lon="2.42573">
        <ele>550</ele>
        <time>2022-10-01T15:45:43Z</time>
      </trkpt>
      <trkpt lat="42.65016" lon="2.42542">
        <ele>554</ele>
        <time>2022-10-01T15:46:18Z</time>
      </trkpt>
      <trkpt lat="42.65022" lon="2.42513">
        <ele>557</ele>
        <time>2022-10-01T15:46:47Z</time>
      </trkpt>
      <trkpt lat="42.65024" lon="2.42513">
        <ele>557</ele>
        <time>2022-10-01T15:46:50Z</time>
      </trkpt>
      <trkpt lat="42.6504" lon="2.4253">
        <ele>563</ele>
        <time>2022-10-01T15:47:17Z</time>
      </trkpt>
      <trkpt lat="42.65047" lon="2.42544">
        <ele>565</ele>
        <time>2022-10-01T15:47:34Z</time>
      </trkpt>
      <trkpt lat="42.65053" lon="2.42584">
        <ele>566</ele>
        <time>2022-10-01T15:48:14Z</time>
      </trkpt>
      <trkpt lat="42.65057" lon="2.42587">
        <ele>567</ele>
        <time>2022-10-01T15:48:20Z</time>
      </trkpt>
      <trkpt lat="42.65061" lon="2.42584">
        <ele>569</ele>
        <time>2022-10-01T15:48:26Z</time>
      </trkpt>
      <trkpt lat="42.65067" lon="2.42587">
        <ele>571</ele>
        <time>2022-10-01T15:48:34Z</time>
      </trkpt>
      <trkpt lat="42.65065" lon="2.42577">
        <ele>570</ele>
        <time>2022-10-01T15:48:45Z</time>
      </trkpt>
      <trkpt lat="42.65068" lon="2.42574">
        <ele>571</ele>
        <time>2022-10-01T15:48:50Z</time>
      </trkpt>
      <trkpt lat="42.65066" lon="2.42576">
        <ele>571</ele>
        <time>2022-10-01T15:48:53Z</time>
      </trkpt>
      <trkpt lat="42.65068" lon="2.42585">
        <ele>571</ele>
        <time>2022-10-01T15:49:02Z</time>
      </trkpt>
      <trkpt lat="42.6506" lon="2.42584">
        <ele>568</ele>
        <time>2022-10-01T15:49:13Z</time>
      </trkpt>
      <trkpt lat="42.65053" lon="2.42587">
        <ele>566</ele>
        <time>2022-10-01T15:49:23Z</time>
      </trkpt>
      <trkpt lat="42.65064" lon="2.42625">
        <ele>569</ele>
        <time>2022-10-01T15:50:03Z</time>
      </trkpt>
      <trkpt lat="42.65067" lon="2.42658">
        <ele>569</ele>
        <time>2022-10-01T15:50:35Z</time>
      </trkpt>
      <trkpt lat="42.65071" lon="2.42664">
        <ele>570</ele>
        <time>2022-10-01T15:50:43Z</time>
      </trkpt>
      <trkpt lat="42.65093" lon="2.42682">
        <ele>576</ele>
        <time>2022-10-01T15:51:18Z</time>
      </trkpt>
      <trkpt lat="42.65099" lon="2.42677">
        <ele>578</ele>
        <time>2022-10-01T15:51:27Z</time>
      </trkpt>
      <trkpt lat="42.65103" lon="2.42653">
        <ele>580</ele>
        <time>2022-10-01T15:51:51Z</time>
      </trkpt>
      <trkpt lat="42.65117" lon="2.42652">
        <ele>585</ele>
        <time>2022-10-01T15:52:10Z</time>
      </trkpt>
      <trkpt lat="42.65122" lon="2.42655">
        <ele>587</ele>
        <time>2022-10-01T15:52:17Z</time>
      </trkpt>
      <trkpt lat="42.65144" lon="2.42709">
        <ele>593</ele>
        <time>2022-10-01T15:53:18Z</time>
      </trkpt>
      <trkpt lat="42.65146" lon="2.42742">
        <ele>593</ele>
        <time>2022-10-01T15:53:50Z</time>
      </trkpt>
      <trkpt lat="42.65143" lon="2.42744">
        <ele>592</ele>
        <time>2022-10-01T15:53:55Z</time>
      </trkpt>
      <trkpt lat="42.65146" lon="2.42753">
        <ele>593</ele>
        <time>2022-10-01T15:54:04Z</time>
      </trkpt>
      <trkpt lat="42.65153" lon="2.42763">
        <ele>596</ele>
        <time>2022-10-01T15:54:18Z</time>
      </trkpt>
      <trkpt lat="42.65154" lon="2.42769">
        <ele>597</ele>
        <time>2022-10-01T15:54:24Z</time>
      </trkpt>
      <trkpt lat="42.65134" lon="2.42864">
        <ele>600</ele>
        <time>2022-10-01T15:56:01Z</time>
      </trkpt>
      <trkpt lat="42.65122" lon="2.4289">
        <ele>601</ele>
        <time>2022-10-01T15:56:31Z</time>
      </trkpt>
      <trkpt lat="42.65116" lon="2.42898">
        <ele>600</ele>
        <time>2022-10-01T15:56:42Z</time>
      </trkpt>
      <trkpt lat="42.65109" lon="2.42946">
        <ele>603</ele>
        <time>2022-10-01T15:57:30Z</time>
      </trkpt>
      <trkpt lat="42.65111" lon="2.43043">
        <ele>604</ele>
        <time>2022-10-01T15:59:06Z</time>
      </trkpt>
      <trkpt lat="42.65116" lon="2.43082">
        <ele>603</ele>
        <time>2022-10-01T15:59:44Z</time>
      </trkpt>
      <trkpt lat="42.65119" lon="2.43082">
        <ele>603</ele>
        <time>2022-10-01T15:59:48Z</time>
      </trkpt>
      <trkpt lat="42.65136" lon="2.43055">
        <ele>607</ele>
        <time>2022-10-01T16:00:23Z</time>
      </trkpt>
      <trkpt lat="42.65183" lon="2.42991">
        <ele>614</ele>
        <time>2022-10-01T16:01:52Z</time>
      </trkpt>
      <trkpt lat="42.65204" lon="2.42957">
        <ele>614</ele>
        <time>2022-10-01T16:02:36Z</time>
      </trkpt>
      <trkpt lat="42.65215" lon="2.42925">
        <ele>617</ele>
        <time>2022-10-01T16:03:10Z</time>
      </trkpt>
      <trkpt lat="42.65233" lon="2.42909">
        <ele>619</ele>
        <time>2022-10-01T16:03:39Z</time>
      </trkpt>
      <trkpt lat="42.65253" lon="2.42896">
        <ele>622</ele>
        <time>2022-10-01T16:04:09Z</time>
      </trkpt>
      <trkpt lat="42.65256" lon="2.42884">
        <ele>623</ele>
        <time>2022-10-01T16:04:21Z</time>
      </trkpt>
      <trkpt lat="42.6528" lon="2.42827">
        <ele>629</ele>
        <time>2022-10-01T16:05:25Z</time>
      </trkpt>
      <trkpt lat="42.65285" lon="2.42807">
        <ele>631</ele>
        <time>2022-10-01T16:05:46Z</time>
      </trkpt>
      <trkpt lat="42.65286" lon="2.42786">
        <ele>634</ele>
        <time>2022-10-01T16:06:07Z</time>
      </trkpt>
      <trkpt lat="42.6528" lon="2.42759">
        <ele>636</ele>
        <time>2022-10-01T16:06:35Z</time>
      </trkpt>
      <trkpt lat="42.65275" lon="2.42709">
        <ele>639</ele>
        <time>2022-10-01T16:07:24Z</time>
      </trkpt>
      <trkpt lat="42.65288" lon="2.42684">
        <ele>646</ele>
        <time>2022-10-01T16:07:54Z</time>
      </trkpt>
      <trkpt lat="42.65293" lon="2.42664">
        <ele>650</ele>
        <time>2022-10-01T16:08:15Z</time>
      </trkpt>
      <trkpt lat="42.65298" lon="2.42656">
        <ele>652</ele>
        <time>2022-10-01T16:08:25Z</time>
      </trkpt>
      <trkpt lat="42.65312" lon="2.42663">
        <ele>657</ele>
        <time>2022-10-01T16:08:45Z</time>
      </trkpt>
      <trkpt lat="42.65323" lon="2.42695">
        <ele>656</ele>
        <time>2022-10-01T16:09:20Z</time>
      </trkpt>
      <trkpt lat="42.65329" lon="2.42701">
        <ele>657</ele>
        <time>2022-10-01T16:09:30Z</time>
      </trkpt>
      <trkpt lat="42.65345" lon="2.42696">
        <ele>660</ele>
        <time>2022-10-01T16:09:52Z</time>
      </trkpt>
      <trkpt lat="42.65346" lon="2.42682">
        <ele>663</ele>
        <time>2022-10-01T16:10:05Z</time>
      </trkpt>
      <trkpt lat="42.65372" lon="2.42643">
        <ele>671</ele>
        <time>2022-10-01T16:10:57Z</time>
      </trkpt>
      <trkpt lat="42.6538" lon="2.42636">
        <ele>672</ele>
        <time>2022-10-01T16:11:10Z</time>
      </trkpt>
      <trkpt lat="42.65389" lon="2.42613">
        <ele>677</ele>
        <time>2022-10-01T16:11:35Z</time>
      </trkpt>
      <trkpt lat="42.65409" lon="2.42586">
        <ele>685</ele>
        <time>2022-10-01T16:12:13Z</time>
      </trkpt>
      <trkpt lat="42.6543" lon="2.42576">
        <ele>686</ele>
        <time>2022-10-01T16:12:43Z</time>
      </trkpt>
      <trkpt lat="42.65448" lon="2.42575">
        <ele>685</ele>
        <time>2022-10-01T16:13:07Z</time>
      </trkpt>
      <trkpt lat="42.6548" lon="2.42565">
        <ele>685</ele>
        <time>2022-10-01T16:13:50Z</time>
      </trkpt>
      <trkpt lat="42.65506" lon="2.42539">
        <ele>687</ele>
        <time>2022-10-01T16:14:34Z</time>
      </trkpt>
      <trkpt lat="42.65511" lon="2.42537">
        <ele>687</ele>
        <time>2022-10-01T16:14:40Z</time>
      </trkpt>
      <trkpt lat="42.65505" lon="2.42527">
        <ele>690</ele>
        <time>2022-10-01T16:14:53Z</time>
      </trkpt>
      <trkpt lat="42.65506" lon="2.42523">
        <ele>690</ele>
        <time>2022-10-01T16:14:57Z</time>
      </trkpt>
      <trkpt lat="42.655" lon="2.42506">
        <ele>694</ele>
        <time>2022-10-01T16:15:16Z</time>
      </trkpt>
      <trkpt lat="42.65496" lon="2.425">
        <ele>695</ele>
        <time>2022-10-01T16:15:24Z</time>
      </trkpt>
      <trkpt lat="42.65493" lon="2.425">
        <ele>694</ele>
        <time>2022-10-01T16:15:28Z</time>
      </trkpt>
      <trkpt lat="42.65494" lon="2.42502">
        <ele>694</ele>
        <time>2022-10-01T16:15:30Z</time>
      </trkpt>
      <trkpt lat="42.65502" lon="2.42493">
        <ele>694</ele>
        <time>2022-10-01T16:15:44Z</time>
      </trkpt>
      <trkpt lat="42.6551" lon="2.42489">
        <ele>694</ele>
        <time>2022-10-01T16:15:55Z</time>
      </trkpt>
      <trkpt lat="42.65523" lon="2.42467">
        <ele>693</ele>
        <time>2022-10-01T16:16:23Z</time>
      </trkpt>
      <trkpt lat="42.65527" lon="2.42464">
        <ele>693</ele>
        <time>2022-10-01T16:16:29Z</time>
      </trkpt>
      <trkpt lat="42.65533" lon="2.42467">
        <ele>693</ele>
        <time>2022-10-01T16:16:38Z</time>
      </trkpt>
      <trkpt lat="42.65547" lon="2.42486">
        <ele>691</ele>
        <time>2022-10-01T16:17:04Z</time>
      </trkpt>
      <trkpt lat="42.65553" lon="2.42489">
        <ele>690</ele>
        <time>2022-10-01T16:17:13Z</time>
      </trkpt>
      <trkpt lat="42.65574" lon="2.42472">
        <ele>692</ele>
        <time>2022-10-01T16:17:45Z</time>
      </trkpt>
      <trkpt lat="42.65595" lon="2.42462">
        <ele>693</ele>
        <time>2022-10-01T16:18:15Z</time>
      </trkpt>
      <trkpt lat="42.65604" lon="2.42461">
        <ele>693</ele>
        <time>2022-10-01T16:18:27Z</time>
      </trkpt>
      <trkpt lat="42.65619" lon="2.42455">
        <ele>694</ele>
        <time>2022-10-01T16:18:48Z</time>
      </trkpt>
      <trkpt lat="42.65639" lon="2.42456">
        <ele>693</ele>
        <time>2022-10-01T16:19:15Z</time>
      </trkpt>
      <trkpt lat="42.65669" lon="2.42453">
        <ele>692</ele>
        <time>2022-10-01T16:19:55Z</time>
      </trkpt>
      <trkpt lat="42.65679" lon="2.42448">
        <ele>692</ele>
        <time>2022-10-01T16:20:09Z</time>
      </trkpt>
      <trkpt lat="42.65688" lon="2.42439">
        <ele>693</ele>
        <time>2022-10-01T16:20:24Z</time>
      </trkpt>
      <trkpt lat="42.65709" lon="2.42409">
        <ele>696</ele>
        <time>2022-10-01T16:21:04Z</time>
      </trkpt>
      <trkpt lat="42.65712" lon="2.42396">
        <ele>697</ele>
        <time>2022-10-01T16:21:18Z</time>
      </trkpt>
      <trkpt lat="42.65737" lon="2.42356">
        <ele>700</ele>
        <time>2022-10-01T16:22:09Z</time>
      </trkpt>
      <trkpt lat="42.65745" lon="2.42338">
        <ele>703</ele>
        <time>2022-10-01T16:22:30Z</time>
      </trkpt>
      <trkpt lat="42.65753" lon="2.4233">
        <ele>703</ele>
        <time>2022-10-01T16:22:43Z</time>
      </trkpt>
      <trkpt lat="42.65758" lon="2.42314">
        <ele>702</ele>
        <time>2022-10-01T16:23:00Z</time>
      </trkpt>
      <trkpt lat="42.65772" lon="2.42287">
        <ele>702</ele>
        <time>2022-10-01T16:23:33Z</time>
      </trkpt>
      <trkpt lat="42.65784" lon="2.42249">
        <ele>704</ele>
        <time>2022-10-01T16:24:13Z</time>
      </trkpt>
      <trkpt lat="42.6579" lon="2.42241">
        <ele>703</ele>
        <time>2022-10-01T16:24:25Z</time>
      </trkpt>
      <trkpt lat="42.65807" lon="2.42233">
        <ele>705</ele>
        <time>2022-10-01T16:24:49Z</time>
      </trkpt>
      <trkpt lat="42.65813" lon="2.42233">
        <ele>705</ele>
        <time>2022-10-01T16:24:57Z</time>
      </trkpt>
      <trkpt lat="42.65836" lon="2.4221">
        <ele>706</ele>
        <time>2022-10-01T16:25:35Z</time>
      </trkpt>
      <trkpt lat="42.65855" lon="2.42185">
        <ele>709</ele>
        <time>2022-10-01T16:26:10Z</time>
      </trkpt>
      <trkpt lat="42.65875" lon="2.42145">
        <ele>714</ele>
        <time>2022-10-01T16:26:57Z</time>
      </trkpt>
      <trkpt lat="42.65879" lon="2.4211">
        <ele>716</ele>
        <time>2022-10-01T16:27:32Z</time>
      </trkpt>
      <trkpt lat="42.65875" lon="2.42081">
        <ele>716</ele>
        <time>2022-10-01T16:28:01Z</time>
      </trkpt>
      <trkpt lat="42.65865" lon="2.42064">
        <ele>715</ele>
        <time>2022-10-01T16:28:22Z</time>
      </trkpt>
      <trkpt lat="42.65866" lon="2.41997">
        <ele>723</ele>
        <time>2022-10-01T16:29:28Z</time>
      </trkpt>
      <trkpt lat="42.65854" lon="2.41925">
        <ele>732</ele>
        <time>2022-10-01T16:30:41Z</time>
      </trkpt>
      <trkpt lat="42.65861" lon="2.41924">
        <ele>734</ele>
        <time>2022-10-01T16:30:50Z</time>
      </trkpt>
      <trkpt lat="42.65878" lon="2.4193">
        <ele>737</ele>
        <time>2022-10-01T16:31:14Z</time>
      </trkpt>
      <trkpt lat="42.65932" lon="2.41978">
        <ele>742</ele>
        <time>2022-10-01T16:32:40Z</time>
      </trkpt>
      <trkpt lat="42.65962" lon="2.41998">
        <ele>746</ele>
        <time>2022-10-01T16:33:24Z</time>
      </trkpt>
      <trkpt lat="42.65979" lon="2.42019">
        <ele>746</ele>
        <time>2022-10-01T16:33:55Z</time>
      </trkpt>
      <trkpt lat="42.65989" lon="2.42024">
        <ele>748</ele>
        <time>2022-10-01T16:34:09Z</time>
      </trkpt>
      <trkpt lat="42.66012" lon="2.42019">
        <ele>752</ele>
        <time>2022-10-01T16:34:40Z</time>
      </trkpt>
      <trkpt lat="42.66036" lon="2.42001">
        <ele>757</ele>
        <time>2022-10-01T16:35:17Z</time>
      </trkpt>
      <trkpt lat="42.66032" lon="2.41984">
        <ele>760</ele>
        <time>2022-10-01T16:35:34Z</time>
      </trkpt>
      <trkpt lat="42.66008" lon="2.41958">
        <ele>761</ele>
        <time>2022-10-01T16:36:15Z</time>
      </trkpt>
      <trkpt lat="42.66" lon="2.41938">
        <ele>764</ele>
        <time>2022-10-01T16:36:38Z</time>
      </trkpt>
      <trkpt lat="42.65992" lon="2.41927">
        <ele>764</ele>
        <time>2022-10-01T16:36:53Z</time>
      </trkpt>
      <trkpt lat="42.65979" lon="2.41922">
        <ele>761</ele>
        <time>2022-10-01T16:37:11Z</time>
      </trkpt>
      <trkpt lat="42.65958" lon="2.41892">
        <ele>762</ele>
        <time>2022-10-01T16:37:51Z</time>
      </trkpt>
      <trkpt lat="42.65956" lon="2.41863">
        <ele>768</ele>
        <time>2022-10-01T16:38:20Z</time>
      </trkpt>
      <trkpt lat="42.6595" lon="2.4183">
        <ele>772</ele>
        <time>2022-10-01T16:38:53Z</time>
      </trkpt>
      <trkpt lat="42.65942" lon="2.41814">
        <ele>772</ele>
        <time>2022-10-01T16:39:12Z</time>
      </trkpt>
      <trkpt lat="42.6593" lon="2.41802">
        <ele>771</ele>
        <time>2022-10-01T16:39:32Z</time>
      </trkpt>
      <trkpt lat="42.65932" lon="2.41799">
        <ele>771</ele>
        <time>2022-10-01T16:39:36Z</time>
      </trkpt>
      <trkpt lat="42.65937" lon="2.41799">
        <ele>772</ele>
        <time>2022-10-01T16:39:43Z</time>
      </trkpt>
      <trkpt lat="42.65943" lon="2.41806">
        <ele>773</ele>
        <time>2022-10-01T16:39:53Z</time>
      </trkpt>
      <trkpt lat="42.65943" lon="2.41809">
        <ele>773</ele>
        <time>2022-10-01T16:39:56Z</time>
      </trkpt>
      <trkpt lat="42.65932" lon="2.41812">
        <ele>770</ele>
        <time>2022-10-01T16:40:11Z</time>
      </trkpt>
      <trkpt lat="42.65927" lon="2.4181">
        <ele>769</ele>
        <time>2022-10-01T16:40:18Z</time>
      </trkpt>
      <trkpt lat="42.65928" lon="2.41807">
        <ele>770</ele>
        <time>2022-10-01T16:40:21Z</time>
      </trkpt>
      <trkpt lat="42.65934" lon="2.41812">
        <ele>770</ele>
        <time>2022-10-01T16:40:31Z</time>
      </trkpt>
      <trkpt lat="42.65941" lon="2.41809">
        <ele>772</ele>
        <time>2022-10-01T16:40:41Z</time>
      </trkpt>
      <trkpt lat="42.6594" lon="2.41804">
        <ele>773</ele>
        <time>2022-10-01T16:40:46Z</time>
      </trkpt>
      <trkpt lat="42.65921" lon="2.41792">
        <ele>770</ele>
        <time>2022-10-01T16:41:14Z</time>
      </trkpt>
      <trkpt lat="42.65908" lon="2.41774">
        <ele>770</ele>
        <time>2022-10-01T16:41:38Z</time>
      </trkpt>
      <trkpt lat="42.65915" lon="2.41745">
        <ele>774</ele>
        <time>2022-10-01T16:42:08Z</time>
      </trkpt>
      <trkpt lat="42.6592" lon="2.41749">
        <ele>775</ele>
        <time>2022-10-01T16:42:16Z</time>
      </trkpt>
      <trkpt lat="42.65916" lon="2.41743">
        <ele>775</ele>
        <time>2022-10-01T16:42:24Z</time>
      </trkpt>
      <trkpt lat="42.65921" lon="2.41726">
        <ele>777</ele>
        <time>2022-10-01T16:42:42Z</time>
      </trkpt>
      <trkpt lat="42.65944" lon="2.4173">
        <ele>781</ele>
        <time>2022-10-01T16:43:13Z</time>
      </trkpt>
      <trkpt lat="42.65962" lon="2.4174">
        <ele>783</ele>
        <time>2022-10-01T16:43:39Z</time>
      </trkpt>
      <trkpt lat="42.6598" lon="2.41744">
        <ele>786</ele>
        <time>2022-10-01T16:44:03Z</time>
      </trkpt>
      <trkpt lat="42.65988" lon="2.41739">
        <ele>788</ele>
        <time>2022-10-01T16:44:15Z</time>
      </trkpt>
      <trkpt lat="42.65991" lon="2.41729">
        <ele>789</ele>
        <time>2022-10-01T16:44:26Z</time>
      </trkpt>
      <trkpt lat="42.65986" lon="2.41661">
        <ele>793</ele>
        <time>2022-10-01T16:45:33Z</time>
      </trkpt>
      <trkpt lat="42.65988" lon="2.41634">
        <ele>796</ele>
        <time>2022-10-01T16:45:59Z</time>
      </trkpt>
      <trkpt lat="42.65985" lon="2.41613">
        <ele>797</ele>
        <time>2022-10-01T16:46:20Z</time>
      </trkpt>
      <trkpt lat="42.65966" lon="2.41589">
        <ele>797</ele>
        <time>2022-10-01T16:46:55Z</time>
      </trkpt>
      <trkpt lat="42.65949" lon="2.41555">
        <ele>796</ele>
        <time>2022-10-01T16:47:35Z</time>
      </trkpt>
      <trkpt lat="42.6594" lon="2.41573">
        <ele>794</ele>
        <time>2022-10-01T16:47:57Z</time>
      </trkpt>
      <trkpt lat="42.65922" lon="2.41585">
        <ele>792</ele>
        <time>2022-10-01T16:48:23Z</time>
      </trkpt>
      <trkpt lat="42.6591" lon="2.41584">
        <ele>791</ele>
        <time>2022-10-01T16:48:39Z</time>
      </trkpt>
      <trkpt lat="42.65899" lon="2.41577">
        <ele>791</ele>
        <time>2022-10-01T16:48:56Z</time>
      </trkpt>
      <trkpt lat="42.65885" lon="2.41564">
        <ele>792</ele>
        <time>2022-10-01T16:49:18Z</time>
      </trkpt>
      <trkpt lat="42.65884" lon="2.41557">
        <ele>792</ele>
        <time>2022-10-01T16:49:25Z</time>
      </trkpt>
      <trkpt lat="42.65886" lon="2.41572">
        <ele>791</ele>
        <time>2022-10-01T16:49:40Z</time>
      </trkpt>
      <trkpt lat="42.65877" lon="2.41583">
        <ele>791</ele>
        <time>2022-10-01T16:49:56Z</time>
      </trkpt>
      <trkpt lat="42.65868" lon="2.41585">
        <ele>790</ele>
        <time>2022-10-01T16:50:09Z</time>
      </trkpt>
      <trkpt lat="42.65854" lon="2.41583">
        <ele>790</ele>
        <time>2022-10-01T16:50:27Z</time>
      </trkpt>
      <trkpt lat="42.65834" lon="2.41587">
        <ele>789</ele>
        <time>2022-10-01T16:50:54Z</time>
      </trkpt>
      <trkpt lat="42.65825" lon="2.41585">
        <ele>789</ele>
        <time>2022-10-01T16:51:06Z</time>
      </trkpt>
      <trkpt lat="42.65776" lon="2.41598">
        <ele>783</ele>
        <time>2022-10-01T16:52:13Z</time>
      </trkpt>
      <trkpt lat="42.65767" lon="2.41593">
        <ele>783</ele>
        <time>2022-10-01T16:52:26Z</time>
      </trkpt>
      <trkpt lat="42.65758" lon="2.41593">
        <ele>783</ele>
        <time>2022-10-01T16:52:38Z</time>
      </trkpt>
      <trkpt lat="42.65769" lon="2.41578">
        <ele>785</ele>
        <time>2022-10-01T16:52:59Z</time>
      </trkpt>
      <trkpt lat="42.65763" lon="2.41589">
        <ele>783</ele>
        <time>2022-10-01T16:53:12Z</time>
      </trkpt>
      <trkpt lat="42.65766" lon="2.41594">
        <ele>783</ele>
        <time>2022-10-01T16:53:19Z</time>
      </trkpt>
      <trkpt lat="42.65753" lon="2.41599">
        <ele>782</ele>
        <time>2022-10-01T16:53:37Z</time>
      </trkpt>
      <trkpt lat="42.65737" lon="2.41592">
        <ele>780</ele>
        <time>2022-10-01T16:53:59Z</time>
      </trkpt>
      <trkpt lat="42.65731" lon="2.41586">
        <ele>779</ele>
        <time>2022-10-01T16:54:09Z</time>
      </trkpt>
      <trkpt lat="42.65728" lon="2.41611">
        <ele>777</ele>
        <time>2022-10-01T16:54:34Z</time>
      </trkpt>
      <trkpt lat="42.65729" lon="2.41619">
        <ele>776</ele>
        <time>2022-10-01T16:54:42Z</time>
      </trkpt>
      <trkpt lat="42.65732" lon="2.41623">
        <ele>776</ele>
        <time>2022-10-01T16:54:47Z</time>
      </trkpt>
      <trkpt lat="42.65731" lon="2.4163">
        <ele>776</ele>
        <time>2022-10-01T16:54:54Z</time>
      </trkpt>
      <trkpt lat="42.65734" lon="2.41633">
        <ele>776</ele>
        <time>2022-10-01T16:54:59Z</time>
      </trkpt>
      <trkpt lat="42.65732" lon="2.41631">
        <ele>776</ele>
        <time>2022-10-01T16:55:03Z</time>
      </trkpt>
      <trkpt lat="42.65734" lon="2.41638">
        <ele>775</ele>
        <time>2022-10-01T16:55:10Z</time>
      </trkpt>
      <trkpt lat="42.65733" lon="2.41649">
        <ele>774</ele>
        <time>2022-10-01T16:55:21Z</time>
      </trkpt>
      <trkpt lat="42.65728" lon="2.4166">
        <ele>773</ele>
        <time>2022-10-01T16:55:34Z</time>
      </trkpt>
      <trkpt lat="42.65725" lon="2.4168">
        <ele>771</ele>
        <time>2022-10-01T16:55:54Z</time>
      </trkpt>
      <trkpt lat="42.65719" lon="2.41684">
        <ele>770</ele>
        <time>2022-10-01T16:56:03Z</time>
      </trkpt>
      <trkpt lat="42.65719" lon="2.41712">
        <ele>768</ele>
        <time>2022-10-01T16:56:30Z</time>
      </trkpt>
      <trkpt lat="42.65707" lon="2.41717">
        <ele>767</ele>
        <time>2022-10-01T16:56:47Z</time>
      </trkpt>
      <trkpt lat="42.65703" lon="2.41728">
        <ele>766</ele>
        <time>2022-10-01T16:56:59Z</time>
      </trkpt>
      <trkpt lat="42.65692" lon="2.41732">
        <ele>765</ele>
        <time>2022-10-01T16:57:14Z</time>
      </trkpt>
      <trkpt lat="42.65683" lon="2.41727">
        <ele>765</ele>
        <time>2022-10-01T16:57:27Z</time>
      </trkpt>
      <trkpt lat="42.65674" lon="2.41732">
        <ele>765</ele>
        <time>2022-10-01T16:57:40Z</time>
      </trkpt>
      <trkpt lat="42.65663" lon="2.41721">
        <ele>764</ele>
        <time>2022-10-01T16:57:58Z</time>
      </trkpt>
      <trkpt lat="42.65653" lon="2.41722">
        <ele>760</ele>
        <time>2022-10-01T16:58:12Z</time>
      </trkpt>
      <trkpt lat="42.65649" lon="2.4172">
        <ele>759</ele>
        <time>2022-10-01T16:58:17Z</time>
      </trkpt>
      <trkpt lat="42.65641" lon="2.41728">
        <ele>756</ele>
        <time>2022-10-01T16:58:31Z</time>
      </trkpt>
      <trkpt lat="42.65632" lon="2.41725">
        <ele>753</ele>
        <time>2022-10-01T16:58:43Z</time>
      </trkpt>
      <trkpt lat="42.65618" lon="2.41738">
        <ele>748</ele>
        <time>2022-10-01T16:59:06Z</time>
      </trkpt>
      <trkpt lat="42.65612" lon="2.41739">
        <ele>746</ele>
        <time>2022-10-01T16:59:14Z</time>
      </trkpt>
      <trkpt lat="42.65609" lon="2.41742">
        <ele>745</ele>
        <time>2022-10-01T16:59:19Z</time>
      </trkpt>
      <trkpt lat="42.65601" lon="2.4174">
        <ele>742</ele>
        <time>2022-10-01T16:59:29Z</time>
      </trkpt>
      <trkpt lat="42.65592" lon="2.41732">
        <ele>739</ele>
        <time>2022-10-01T16:59:44Z</time>
      </trkpt>
      <trkpt lat="42.65586" lon="2.41732">
        <ele>737</ele>
        <time>2022-10-01T16:59:52Z</time>
      </trkpt>
      <trkpt lat="42.65565" lon="2.41723">
        <ele>731</ele>
        <time>2022-10-01T17:00:21Z</time>
      </trkpt>
      <trkpt lat="42.65537" lon="2.41727">
        <ele>721</ele>
        <time>2022-10-01T17:00:59Z</time>
      </trkpt>
      <trkpt lat="42.65531" lon="2.41725">
        <ele>719</ele>
        <time>2022-10-01T17:01:07Z</time>
      </trkpt>
      <trkpt lat="42.65525" lon="2.41719">
        <ele>718</ele>
        <time>2022-10-01T17:01:17Z</time>
      </trkpt>
      <trkpt lat="42.65519" lon="2.41707">
        <ele>716</ele>
        <time>2022-10-01T17:01:31Z</time>
      </trkpt>
      <trkpt lat="42.65507" lon="2.41696">
        <ele>712</ele>
        <time>2022-10-01T17:01:51Z</time>
      </trkpt>
      <trkpt lat="42.65489" lon="2.41693">
        <ele>707</ele>
        <time>2022-10-01T17:02:15Z</time>
      </trkpt>
      <trkpt lat="42.65468" lon="2.41693">
        <ele>701</ele>
        <time>2022-10-01T17:02:43Z</time>
      </trkpt>
      <trkpt lat="42.65459" lon="2.41688">
        <ele>698</ele>
        <time>2022-10-01T17:02:56Z</time>
      </trkpt>
      <trkpt lat="42.65449" lon="2.41703">
        <ele>695</ele>
        <time>2022-10-01T17:03:16Z</time>
      </trkpt>
      <trkpt lat="42.65444" lon="2.41704">
        <ele>694</ele>
        <time>2022-10-01T17:03:22Z</time>
      </trkpt>
      <trkpt lat="42.65436" lon="2.4172">
        <ele>691</ele>
        <time>2022-10-01T17:03:41Z</time>
      </trkpt>
      <trkpt lat="42.65417" lon="2.41729">
        <ele>686</ele>
        <time>2022-10-01T17:04:08Z</time>
      </trkpt>
      <trkpt lat="42.65406" lon="2.41738">
        <ele>683</ele>
        <time>2022-10-01T17:04:25Z</time>
      </trkpt>
      <trkpt lat="42.65368" lon="2.41789">
        <ele>671</ele>
        <time>2022-10-01T17:05:37Z</time>
      </trkpt>
      <trkpt lat="42.65362" lon="2.41788">
        <ele>669</ele>
        <time>2022-10-01T17:05:45Z</time>
      </trkpt>
      <trkpt lat="42.65351" lon="2.41793">
        <ele>666</ele>
        <time>2022-10-01T17:06:00Z</time>
      </trkpt>
      <trkpt lat="42.65339" lon="2.41813">
        <ele>661</ele>
        <time>2022-10-01T17:06:25Z</time>
      </trkpt>
      <trkpt lat="42.65336" lon="2.41824">
        <ele>659</ele>
        <time>2022-10-01T17:06:37Z</time>
      </trkpt>
      <trkpt lat="42.65322" lon="2.41853">
        <ele>654</ele>
        <time>2022-10-01T17:07:11Z</time>
      </trkpt>
      <trkpt lat="42.65296" lon="2.41899">
        <ele>648</ele>
        <time>2022-10-01T17:08:08Z</time>
      </trkpt>
      <trkpt lat="42.65289" lon="2.41936">
        <ele>642</ele>
        <time>2022-10-01T17:08:45Z</time>
      </trkpt>
      <trkpt lat="42.65292" lon="2.41936">
        <ele>642</ele>
        <time>2022-10-01T17:08:49Z</time>
      </trkpt>
      <trkpt lat="42.6529" lon="2.41929">
        <ele>643</ele>
        <time>2022-10-01T17:08:57Z</time>
      </trkpt>
      <trkpt lat="42.65284" lon="2.41944">
        <ele>640</ele>
        <time>2022-10-01T17:09:14Z</time>
      </trkpt>
      <trkpt lat="42.6528" lon="2.41947">
        <ele>639</ele>
        <time>2022-10-01T17:09:20Z</time>
      </trkpt>
      <trkpt lat="42.65275" lon="2.41959">
        <ele>636</ele>
        <time>2022-10-01T17:09:33Z</time>
      </trkpt>
      <trkpt lat="42.65264" lon="2.41974">
        <ele>632</ele>
        <time>2022-10-01T17:09:54Z</time>
      </trkpt>
      <trkpt lat="42.65261" lon="2.41984">
        <ele>629</ele>
        <time>2022-10-01T17:10:05Z</time>
      </trkpt>
      <trkpt lat="42.65256" lon="2.41987">
        <ele>628</ele>
        <time>2022-10-01T17:10:12Z</time>
      </trkpt>
      <trkpt lat="42.65247" lon="2.42007">
        <ele>623</ele>
        <time>2022-10-01T17:10:35Z</time>
      </trkpt>
      <trkpt lat="42.65232" lon="2.42011">
        <ele>621</ele>
        <time>2022-10-01T17:10:55Z</time>
      </trkpt>
      <trkpt lat="42.65207" lon="2.42033">
        <ele>613</ele>
        <time>2022-10-01T17:11:35Z</time>
      </trkpt>
      <trkpt lat="42.65207" lon="2.42037">
        <ele>612</ele>
        <time>2022-10-01T17:11:39Z</time>
      </trkpt>
      <trkpt lat="42.65221" lon="2.42045">
        <ele>612</ele>
        <time>2022-10-01T17:11:59Z</time>
      </trkpt>
      <trkpt lat="42.65223" lon="2.42049">
        <ele>611</ele>
        <time>2022-10-01T17:12:04Z</time>
      </trkpt>
      <trkpt lat="42.65204" lon="2.42061">
        <ele>607</ele>
        <time>2022-10-01T17:12:32Z</time>
      </trkpt>
      <trkpt lat="42.65198" lon="2.4207">
        <ele>604</ele>
        <time>2022-10-01T17:12:44Z</time>
      </trkpt>
      <trkpt lat="42.65171" lon="2.42133">
        <ele>592</ele>
        <time>2022-10-01T17:13:55Z</time>
      </trkpt>
      <trkpt lat="42.65145" lon="2.42155">
        <ele>587</ele>
        <time>2022-10-01T17:14:36Z</time>
      </trkpt>
      <trkpt lat="42.6514" lon="2.42162">
        <ele>585</ele>
        <time>2022-10-01T17:14:46Z</time>
      </trkpt>
      <trkpt lat="42.65135" lon="2.42161">
        <ele>585</ele>
        <time>2022-10-01T17:14:53Z</time>
      </trkpt>
      <trkpt lat="42.65129" lon="2.4218">
        <ele>583</ele>
        <time>2022-10-01T17:15:13Z</time>
      </trkpt>
      <trkpt lat="42.65131" lon="2.42204">
        <ele>582</ele>
        <time>2022-10-01T17:15:37Z</time>
      </trkpt>
      <trkpt lat="42.6514" lon="2.42214">
        <ele>582</ele>
        <time>2022-10-01T17:15:52Z</time>
      </trkpt>
      <trkpt lat="42.65145" lon="2.42228">
        <ele>582</ele>
        <time>2022-10-01T17:16:07Z</time>
      </trkpt>
      <trkpt lat="42.65125" lon="2.42243">
        <ele>578</ele>
        <time>2022-10-01T17:16:38Z</time>
      </trkpt>
      <trkpt lat="42.65115" lon="2.42254">
        <ele>575</ele>
        <time>2022-10-01T17:16:55Z</time>
      </trkpt>
      <trkpt lat="42.65103" lon="2.42279">
        <ele>575</ele>
        <time>2022-10-01T17:17:24Z</time>
      </trkpt>
      <trkpt lat="42.65087" lon="2.42294">
        <ele>572</ele>
        <time>2022-10-01T17:17:50Z</time>
      </trkpt>
      <trkpt lat="42.6508" lon="2.42307">
        <ele>571</ele>
        <time>2022-10-01T17:18:06Z</time>
      </trkpt>
      <trkpt lat="42.65069" lon="2.42352">
        <ele>570</ele>
        <time>2022-10-01T17:18:53Z</time>
      </trkpt>
      <trkpt lat="42.65047" lon="2.4238">
        <ele>566</ele>
        <time>2022-10-01T17:19:33Z</time>
      </trkpt>
      <trkpt lat="42.65043" lon="2.42389">
        <ele>565</ele>
        <time>2022-10-01T17:19:43Z</time>
      </trkpt>
      <trkpt lat="42.65022" lon="2.42511">
        <ele>557</ele>
        <time>2022-10-01T17:21:46Z</time>
      </trkpt>
      <trkpt lat="42.65018" lon="2.4251">
        <ele>555</ele>
        <time>2022-10-01T17:21:52Z</time>
      </trkpt>
      <trkpt lat="42.65016" lon="2.42505">
        <ele>555</ele>
        <time>2022-10-01T17:21:57Z</time>
      </trkpt>
      <trkpt lat="42.65008" lon="2.42499">
        <ele>552</ele>
        <time>2022-10-01T17:22:09Z</time>
      </trkpt>
      <trkpt lat="42.64999" lon="2.42497">
        <ele>549</ele>
        <time>2022-10-01T17:22:22Z</time>
      </trkpt>
      <trkpt lat="42.64989" lon="2.4251">
        <ele>547</ele>
        <time>2022-10-01T17:22:40Z</time>
      </trkpt>
      <trkpt lat="42.64984" lon="2.42508">
        <ele>546</ele>
        <time>2022-10-01T17:22:47Z</time>
      </trkpt>
      <trkpt lat="42.64978" lon="2.42501">
        <ele>545</ele>
        <time>2022-10-01T17:22:57Z</time>
      </trkpt>
      <trkpt lat="42.64978" lon="2.42485">
        <ele>546</ele>
        <time>2022-10-01T17:23:13Z</time>
      </trkpt>
      <trkpt lat="42.64972" lon="2.42461">
        <ele>546</ele>
        <time>2022-10-01T17:23:38Z</time>
      </trkpt>
      <trkpt lat="42.64965" lon="2.42445">
        <ele>547</ele>
        <time>2022-10-01T17:23:56Z</time>
      </trkpt>
      <trkpt lat="42.64953" lon="2.42448">
        <ele>545</ele>
        <time>2022-10-01T17:24:13Z</time>
      </trkpt>
      <trkpt lat="42.6495" lon="2.42452">
        <ele>544</ele>
        <time>2022-10-01T17:24:18Z</time>
      </trkpt>
      <trkpt lat="42.6494" lon="2.42457">
        <ele>542</ele>
        <time>2022-10-01T17:24:32Z</time>
      </trkpt>
      <trkpt lat="42.6494" lon="2.42465">
        <ele>541</ele>
        <time>2022-10-01T17:24:40Z</time>
      </trkpt>
      <trkpt lat="42.64938" lon="2.4246">
        <ele>541</ele>
        <time>2022-10-01T17:24:46Z</time>
      </trkpt>
      <trkpt lat="42.64934" lon="2.4246">
        <ele>540</ele>
        <time>2022-10-01T17:24:51Z</time>
      </trkpt>
      <trkpt lat="42.64921" lon="2.42471">
        <ele>537</ele>
        <time>2022-10-01T17:25:12Z</time>
      </trkpt>
      <trkpt lat="42.64894" lon="2.42473">
        <ele>535</ele>
        <time>2022-10-01T17:25:48Z</time>
      </trkpt>
      <trkpt lat="42.64875" lon="2.42483">
        <ele>532</ele>
        <time>2022-10-01T17:26:15Z</time>
      </trkpt>
      <trkpt lat="42.64852" lon="2.4248">
        <ele>531</ele>
        <time>2022-10-01T17:26:46Z</time>
      </trkpt>
      <trkpt lat="42.64835" lon="2.42461">
        <ele>532</ele>
        <time>2022-10-01T17:27:15Z</time>
      </trkpt>
      <trkpt lat="42.64843" lon="2.42466">
        <ele>532</ele>
        <time>2022-10-01T17:27:27Z</time>
      </trkpt>
      <trkpt lat="42.64855" lon="2.42451">
        <ele>535</ele>
        <time>2022-10-01T17:27:49Z</time>
      </trkpt>
      <trkpt lat="42.64858" lon="2.42433">
        <ele>537</ele>
        <time>2022-10-01T17:28:07Z</time>
      </trkpt>
      <trkpt lat="42.64854" lon="2.42424">
        <ele>538</ele>
        <time>2022-10-01T17:28:17Z</time>
      </trkpt>
      <trkpt lat="42.64856" lon="2.42407">
        <ele>540</ele>
        <time>2022-10-01T17:28:34Z</time>
      </trkpt>
      <trkpt lat="42.64861" lon="2.42391">
        <ele>542</ele>
        <time>2022-10-01T17:28:51Z</time>
      </trkpt>
      <trkpt lat="42.6487" lon="2.4239">
        <ele>543</ele>
        <time>2022-10-01T17:29:03Z</time>
      </trkpt>
      <trkpt lat="42.64877" lon="2.42391">
        <ele>544</ele>
        <time>2022-10-01T17:29:12Z</time>
      </trkpt>
      <trkpt lat="42.64877" lon="2.42393">
        <ele>544</ele>
        <time>2022-10-01T17:29:14Z</time>
      </trkpt>
      <trkpt lat="42.64877" lon="2.42361">
        <ele>548</ele>
        <time>2022-10-01T17:29:46Z</time>
      </trkpt>
      <trkpt lat="42.64875" lon="2.42348">
        <ele>550</ele>
        <time>2022-10-01T17:29:59Z</time>
      </trkpt>
      <trkpt lat="42.64867" lon="2.4233">
        <ele>551</ele>
        <time>2022-10-01T17:30:20Z</time>
      </trkpt>
      <trkpt lat="42.6485" lon="2.4231">
        <ele>550</ele>
        <time>2022-10-01T17:30:50Z</time>
      </trkpt>
      <trkpt lat="42.64837" lon="2.42271">
        <ele>553</ele>
        <time>2022-10-01T17:31:32Z</time>
      </trkpt>
      <trkpt lat="42.64818" lon="2.42234">
        <ele>556</ele>
        <time>2022-10-01T17:32:16Z</time>
      </trkpt>
      <trkpt lat="42.64811" lon="2.42209">
        <ele>558</ele>
        <time>2022-10-01T17:32:42Z</time>
      </trkpt>
      <trkpt lat="42.64807" lon="2.42206">
        <ele>558</ele>
        <time>2022-10-01T17:32:48Z</time>
      </trkpt>
      <trkpt lat="42.64806" lon="2.42178">
        <ele>561</ele>
        <time>2022-10-01T17:33:16Z</time>
      </trkpt>
      <trkpt lat="42.64797" lon="2.42171">
        <ele>561</ele>
        <time>2022-10-01T17:33:30Z</time>
      </trkpt>
      <trkpt lat="42.64778" lon="2.42179">
        <ele>557</ele>
        <time>2022-10-01T17:33:56Z</time>
      </trkpt>
      <trkpt lat="42.64765" lon="2.42189">
        <ele>555</ele>
        <time>2022-10-01T17:34:16Z</time>
      </trkpt>
      <trkpt lat="42.64746" lon="2.42186">
        <ele>553</ele>
        <time>2022-10-01T17:34:42Z</time>
      </trkpt>
      <trkpt lat="42.64731" lon="2.42189">
        <ele>551</ele>
        <time>2022-10-01T17:35:02Z</time>
      </trkpt>
      <trkpt lat="42.64719" lon="2.42187">
        <ele>551</ele>
        <time>2022-10-01T17:35:18Z</time>
      </trkpt>
      <trkpt lat="42.64673" lon="2.42198">
        <ele>547</ele>
        <time>2022-10-01T17:36:20Z</time>
      </trkpt>
      <trkpt lat="42.64667" lon="2.42189">
        <ele>547</ele>
        <time>2022-10-01T17:36:32Z</time>
      </trkpt>
      <trkpt lat="42.64672" lon="2.42173">
        <ele>547</ele>
        <time>2022-10-01T17:36:49Z</time>
      </trkpt>
      <trkpt lat="42.64665" lon="2.42192">
        <ele>547</ele>
        <time>2022-10-01T17:37:10Z</time>
      </trkpt>
      <trkpt lat="42.64668" lon="2.42208">
        <ele>547</ele>
        <time>2022-10-01T17:37:26Z</time>
      </trkpt>
      <trkpt lat="42.64664" lon="2.42228">
        <ele>547</ele>
        <time>2022-10-01T17:37:47Z</time>
      </trkpt>
      <trkpt lat="42.64652" lon="2.42235">
        <ele>546</ele>
        <time>2022-10-01T17:38:04Z</time>
      </trkpt>
      <trkpt lat="42.64647" lon="2.42229">
        <ele>546</ele>
        <time>2022-10-01T17:38:13Z</time>
      </trkpt>
      <trkpt lat="42.6465" lon="2.42242">
        <ele>546</ele>
        <time>2022-10-01T17:38:26Z</time>
      </trkpt>
      <trkpt lat="42.64644" lon="2.42264">
        <ele>545</ele>
        <time>2022-10-01T17:38:49Z</time>
      </trkpt>
      <trkpt lat="42.64619" lon="2.42293">
        <ele>543</ele>
        <time>2022-10-01T17:39:33Z</time>
      </trkpt>
      <trkpt lat="42.64615" lon="2.42306">
        <ele>543</ele>
        <time>2022-10-01T17:39:47Z</time>
      </trkpt>
      <trkpt lat="42.64615" lon="2.42323">
        <ele>542</ele>
        <time>2022-10-01T17:40:04Z</time>
      </trkpt>
      <trkpt lat="42.6461" lon="2.42326">
        <ele>542</ele>
        <time>2022-10-01T17:40:11Z</time>
      </trkpt>
      <trkpt lat="42.64578" lon="2.42319">
        <ele>541</ele>
        <time>2022-10-01T17:40:54Z</time>
      </trkpt>
      <trkpt lat="42.64543" lon="2.42318">
        <ele>538</ele>
        <time>2022-10-01T17:41:41Z</time>
      </trkpt>
      <trkpt lat="42.64537" lon="2.42315">
        <ele>538</ele>
        <time>2022-10-01T17:41:50Z</time>
      </trkpt>
      <trkpt lat="42.64487" lon="2.42319">
        <ele>532</ele>
        <time>2022-10-01T17:42:56Z</time>
      </trkpt>
      <trkpt lat="42.64459" lon="2.42326">
        <ele>527</ele>
        <time>2022-10-01T17:43:34Z</time>
      </trkpt>
      <trkpt lat="42.64437" lon="2.4234">
        <ele>524</ele>
        <time>2022-10-01T17:44:07Z</time>
      </trkpt>
      <trkpt lat="42.64413" lon="2.42334">
        <ele>521</ele>
        <time>2022-10-01T17:44:39Z</time>
      </trkpt>
      <trkpt lat="42.644" lon="2.42335">
        <ele>519</ele>
        <time>2022-10-01T17:44:57Z</time>
      </trkpt>
      <trkpt lat="42.64385" lon="2.42352">
        <ele>517</ele>
        <time>2022-10-01T17:45:23Z</time>
      </trkpt>
      <trkpt lat="42.64378" lon="2.42352">
        <ele>517</ele>
        <time>2022-10-01T17:45:32Z</time>
      </trkpt>
      <trkpt lat="42.64373" lon="2.42346">
        <ele>516</ele>
        <time>2022-10-01T17:45:41Z</time>
      </trkpt>
      <trkpt lat="42.64377" lon="2.42334">
        <ele>516</ele>
        <time>2022-10-01T17:45:54Z</time>
      </trkpt>
      <trkpt lat="42.64393" lon="2.42313">
        <ele>515</ele>
        <time>2022-10-01T17:46:24Z</time>
      </trkpt>
      <trkpt lat="42.64421" lon="2.42258">
        <ele>516</ele>
        <time>2022-10-01T17:47:29Z</time>
      </trkpt>
      <trkpt lat="42.64426" lon="2.42244">
        <ele>516</ele>
        <time>2022-10-01T17:47:45Z</time>
      </trkpt>
      <trkpt lat="42.64428" lon="2.4221">
        <ele>514</ele>
        <time>2022-10-01T17:48:18Z</time>
      </trkpt>
      <trkpt lat="42.64434" lon="2.42207">
        <ele>515</ele>
        <time>2022-10-01T17:48:27Z</time>
      </trkpt>
      <trkpt lat="42.6443" lon="2.42207">
        <ele>514</ele>
        <time>2022-10-01T17:48:32Z</time>
      </trkpt>
      <trkpt lat="42.64424" lon="2.42195">
        <ele>512</ele>
        <time>2022-10-01T17:48:46Z</time>
      </trkpt>
      <trkpt lat="42.64419" lon="2.42199">
        <ele>511</ele>
        <time>2022-10-01T17:48:54Z</time>
      </trkpt>
      <trkpt lat="42.64412" lon="2.42229">
        <ele>511</ele>
        <time>2022-10-01T17:49:25Z</time>
      </trkpt>
      <trkpt lat="42.64406" lon="2.42238">
        <ele>510</ele>
        <time>2022-10-01T17:49:37Z</time>
      </trkpt>
      <trkpt lat="42.6438" lon="2.42271">
        <ele>506</ele>
        <time>2022-10-01T17:50:24Z</time>
      </trkpt>
      <trkpt lat="42.64369" lon="2.42268">
        <ele>502</ele>
        <time>2022-10-01T17:50:39Z</time>
      </trkpt>
      <trkpt lat="42.64385" lon="2.4224">
        <ele>503</ele>
        <time>2022-10-01T17:51:14Z</time>
      </trkpt>
      <trkpt lat="42.64386" lon="2.42222">
        <ele>501</ele>
        <time>2022-10-01T17:51:32Z</time>
      </trkpt>
      <trkpt lat="42.64383" lon="2.42202">
        <ele>498</ele>
        <time>2022-10-01T17:51:52Z</time>
      </trkpt>
      <trkpt lat="42.64376" lon="2.42189">
        <ele>494</ele>
        <time>2022-10-01T17:52:08Z</time>
      </trkpt>
      <trkpt lat="42.64375" lon="2.42167">
        <ele>491</ele>
        <time>2022-10-01T17:52:29Z</time>
      </trkpt>
      <trkpt lat="42.64368" lon="2.42138">
        <ele>486</ele>
        <time>2022-10-01T17:52:59Z</time>
      </trkpt>
      <trkpt lat="42.64357" lon="2.42111">
        <ele>480</ele>
        <time>2022-10-01T17:53:29Z</time>
      </trkpt>
      <trkpt lat="42.64349" lon="2.42098">
        <ele>476</ele>
        <time>2022-10-01T17:53:46Z</time>
      </trkpt>
      <trkpt lat="42.64346" lon="2.42097">
        <ele>475</ele>
        <time>2022-10-01T17:53:50Z</time>
      </trkpt>
      <trkpt lat="42.64343" lon="2.42098">
        <ele>474</ele>
        <time>2022-10-01T17:53:54Z</time>
      </trkpt>
      <trkpt lat="42.64334" lon="2.42127">
        <ele>472</ele>
        <time>2022-10-01T17:54:25Z</time>
      </trkpt>
      <trkpt lat="42.64331" lon="2.42145">
        <ele>472</ele>
        <time>2022-10-01T17:54:43Z</time>
      </trkpt>
      <trkpt lat="42.6433" lon="2.42159">
        <ele>472</ele>
        <time>2022-10-01T17:54:57Z</time>
      </trkpt>
      <trkpt lat="42.64334" lon="2.42173">
        <ele>475</ele>
        <time>2022-10-01T17:55:12Z</time>
      </trkpt>
      <trkpt lat="42.64334" lon="2.42196">
        <ele>479</ele>
        <time>2022-10-01T17:55:34Z</time>
      </trkpt>
      <trkpt lat="42.64329" lon="2.42204">
        <ele>478</ele>
        <time>2022-10-01T17:55:45Z</time>
      </trkpt>
      <trkpt lat="42.64325" lon="2.42207">
        <ele>478</ele>
        <time>2022-10-01T17:55:51Z</time>
      </trkpt>
      <trkpt lat="42.6432" lon="2.42207">
        <ele>476</ele>
        <time>2022-10-01T17:55:58Z</time>
      </trkpt>
      <trkpt lat="42.64311" lon="2.42221">
        <ele>476</ele>
        <time>2022-10-01T17:56:16Z</time>
      </trkpt>
      <trkpt lat="42.64293" lon="2.42228">
        <ele>472</ele>
        <time>2022-10-01T17:56:41Z</time>
      </trkpt>
      <trkpt lat="42.64241" lon="2.4224">
        <ele>461</ele>
        <time>2022-10-01T17:57:51Z</time>
      </trkpt>
      <trkpt lat="42.64207" lon="2.42252">
        <ele>456</ele>
        <time>2022-10-01T17:58:38Z</time>
      </trkpt>
      <trkpt lat="42.64202" lon="2.42249">
        <ele>454</ele>
        <time>2022-10-01T17:58:45Z</time>
      </trkpt>
      <trkpt lat="42.64192" lon="2.42284">
        <ele>458</ele>
        <time>2022-10-01T17:59:22Z</time>
      </trkpt>
      <trkpt lat="42.64191" lon="2.42306">
        <ele>461</ele>
        <time>2022-10-01T17:59:44Z</time>
      </trkpt>
      <trkpt lat="42.64187" lon="2.42309">
        <ele>460</ele>
        <time>2022-10-01T17:59:50Z</time>
      </trkpt>
      <trkpt lat="42.64179" lon="2.42284">
        <ele>454</ele>
        <time>2022-10-01T18:00:17Z</time>
      </trkpt>
      <trkpt lat="42.6416" lon="2.42254">
        <ele>445</ele>
        <time>2022-10-01T18:00:56Z</time>
      </trkpt>
      <trkpt lat="42.64156" lon="2.42241">
        <ele>442</ele>
        <time>2022-10-01T18:01:09Z</time>
      </trkpt>
      <trkpt lat="42.64152" lon="2.42236">
        <ele>440</ele>
        <time>2022-10-01T18:01:17Z</time>
      </trkpt>
      <trkpt lat="42.64149" lon="2.42218">
        <ele>436</ele>
        <time>2022-10-01T18:01:35Z</time>
      </trkpt>
      <trkpt lat="42.64154" lon="2.42203">
        <ele>435</ele>
        <time>2022-10-01T18:01:51Z</time>
      </trkpt>
      <trkpt lat="42.64169" lon="2.42199">
        <ele>439</ele>
        <time>2022-10-01T18:02:11Z</time>
      </trkpt>
      <trkpt lat="42.64198" lon="2.42211">
        <ele>446</ele>
        <time>2022-10-01T18:02:52Z</time>
      </trkpt>
      <trkpt lat="42.6424" lon="2.42208">
        <ele>453</ele>
        <time>2022-10-01T18:03:48Z</time>
      </trkpt>
      <trkpt lat="42.64243" lon="2.42201">
        <ele>451</ele>
        <time>2022-10-01T18:03:56Z</time>
      </trkpt>
      <trkpt lat="42.64198" lon="2.42193">
        <ele>442</ele>
        <time>2022-10-01T18:04:56Z</time>
      </trkpt>
      <trkpt lat="42.64174" lon="2.4217">
        <ele>435</ele>
        <time>2022-10-01T18:05:36Z</time>
      </trkpt>
      <trkpt lat="42.64161" lon="2.42167">
        <ele>432</ele>
        <time>2022-10-01T18:05:53Z</time>
      </trkpt>
      <trkpt lat="42.64143" lon="2.42172">
        <ele>428</ele>
        <time>2022-10-01T18:06:18Z</time>
      </trkpt>
      <trkpt lat="42.6413" lon="2.42182">
        <ele>426</ele>
        <time>2022-10-01T18:06:38Z</time>
      </trkpt>
      <trkpt lat="42.64118" lon="2.42197">
        <ele>424</ele>
        <time>2022-10-01T18:06:59Z</time>
      </trkpt>
      <trkpt lat="42.64112" lon="2.42217">
        <ele>424</ele>
        <time>2022-10-01T18:07:21Z</time>
      </trkpt>
      <trkpt lat="42.64113" lon="2.42247">
        <ele>427</ele>
        <time>2022-10-01T18:07:50Z</time>
      </trkpt>
      <trkpt lat="42.64117" lon="2.42271">
        <ele>431</ele>
        <time>2022-10-01T18:08:14Z</time>
      </trkpt>
      <trkpt lat="42.64124" lon="2.42287">
        <ele>435</ele>
        <time>2022-10-01T18:08:33Z</time>
      </trkpt>
      <trkpt lat="42.64123" lon="2.42301">
        <ele>436</ele>
        <time>2022-10-01T18:08:46Z</time>
      </trkpt>
      <trkpt lat="42.64084" lon="2.42343">
        <ele>426</ele>
        <time>2022-10-01T18:09:53Z</time>
      </trkpt>
      <trkpt lat="42.64079" lon="2.42343">
        <ele>425</ele>
        <time>2022-10-01T18:09:59Z</time>
      </trkpt>
      <trkpt lat="42.64064" lon="2.42351">
        <ele>425</ele>
        <time>2022-10-01T18:10:21Z</time>
      </trkpt>
      <trkpt lat="42.64048" lon="2.42352">
        <ele>423</ele>
        <time>2022-10-01T18:10:42Z</time>
      </trkpt>
      <trkpt lat="42.64006" lon="2.42333">
        <ele>411</ele>
        <time>2022-10-01T18:11:41Z</time>
      </trkpt>
      <trkpt lat="42.63989" lon="2.4232">
        <ele>407</ele>
        <time>2022-10-01T18:12:07Z</time>
      </trkpt>
      <trkpt lat="42.63973" lon="2.42312">
        <ele>404</ele>
        <time>2022-10-01T18:12:30Z</time>
      </trkpt>
      <trkpt lat="42.63934" lon="2.42304">
        <ele>401</ele>
        <time>2022-10-01T18:13:23Z</time>
      </trkpt>
      <trkpt lat="42.63902" lon="2.42311">
        <ele>399</ele>
        <time>2022-10-01T18:14:06Z</time>
      </trkpt>
      <trkpt lat="42.63881" lon="2.42326">
        <ele>398</ele>
        <time>2022-10-01T18:14:38Z</time>
      </trkpt>
      <trkpt lat="42.63857" lon="2.42334">
        <ele>395</ele>
        <time>2022-10-01T18:15:11Z</time>
      </trkpt>
      <trkpt lat="42.63817" lon="2.42353">
        <ele>390</ele>
        <time>2022-10-01T18:16:07Z</time>
      </trkpt>
      <trkpt lat="42.63809" lon="2.42363">
        <ele>390</ele>
        <time>2022-10-01T18:16:22Z</time>
      </trkpt>
      <trkpt lat="42.63802" lon="2.42367">
        <ele>389</ele>
        <time>2022-10-01T18:16:32Z</time>
      </trkpt>
      <trkpt lat="42.63814" lon="2.42358">
        <ele>390</ele>
        <time>2022-10-01T18:16:50Z</time>
      </trkpt>
      <trkpt lat="42.63802" lon="2.42348">
        <ele>385</ele>
        <time>2022-10-01T18:17:09Z</time>
      </trkpt>
      <trkpt lat="42.63799" lon="2.42338">
        <ele>382</ele>
        <time>2022-10-01T18:17:19Z</time>
      </trkpt>
      <trkpt lat="42.63804" lon="2.42323">
        <ele>381</ele>
        <time>2022-10-01T18:17:36Z</time>
      </trkpt>
      <trkpt lat="42.63803" lon="2.42311">
        <ele>379</ele>
        <time>2022-10-01T18:17:47Z</time>
      </trkpt>
      <trkpt lat="42.63817" lon="2.42286">
        <ele>377</ele>
        <time>2022-10-01T18:18:18Z</time>
      </trkpt>
      <trkpt lat="42.63818" lon="2.42265">
        <ele>374</ele>
        <time>2022-10-01T18:18:39Z</time>
      </trkpt>
      <trkpt lat="42.63805" lon="2.42288">
        <ele>375</ele>
        <time>2022-10-01T18:19:07Z</time>
      </trkpt>
      <trkpt lat="42.63787" lon="2.42313">
        <ele>376</ele>
        <time>2022-10-01T18:19:42Z</time>
      </trkpt>
      <trkpt lat="42.63745" lon="2.42361">
        <ele>376</ele>
        <time>2022-10-01T18:20:55Z</time>
      </trkpt>
      <trkpt lat="42.63714" lon="2.42379">
        <ele>376</ele>
        <time>2022-10-01T18:21:40Z</time>
      </trkpt>
      <trkpt lat="42.63675" lon="2.42396">
        <ele>374</ele>
        <time>2022-10-01T18:22:35Z</time>
      </trkpt>
      <trkpt lat="42.6366" lon="2.424">
        <ele>372</ele>
        <time>2022-10-01T18:22:55Z</time>
      </trkpt>
      <trkpt lat="42.63633" lon="2.42414">
        <ele>368</ele>
        <time>2022-10-01T18:23:34Z</time>
      </trkpt>
      <trkpt lat="42.63615" lon="2.42444">
        <ele>367</ele>
        <time>2022-10-01T18:24:12Z</time>
      </trkpt>
      <trkpt lat="42.63613" lon="2.42473">
        <ele>369</ele>
        <time>2022-10-01T18:24:40Z</time>
      </trkpt>
      <trkpt lat="42.63606" lon="2.4248">
        <ele>367</ele>
        <time>2022-10-01T18:24:52Z</time>
      </trkpt>
      <trkpt lat="42.63594" lon="2.4248">
        <ele>364</ele>
        <time>2022-10-01T18:25:08Z</time>
      </trkpt>
      <trkpt lat="42.63556" lon="2.42489">
        <ele>356</ele>
        <time>2022-10-01T18:25:59Z</time>
      </trkpt>
      <trkpt lat="42.63545" lon="2.42489">
        <ele>354</ele>
        <time>2022-10-01T18:26:14Z</time>
      </trkpt>
      <trkpt lat="42.63529" lon="2.42478">
        <ele>349</ele>
        <time>2022-10-01T18:26:38Z</time>
      </trkpt>
      <trkpt lat="42.63517" lon="2.42465">
        <ele>345</ele>
        <time>2022-10-01T18:26:58Z</time>
      </trkpt>
      <trkpt lat="42.63498" lon="2.42452">
        <ele>340</ele>
        <time>2022-10-01T18:27:27Z</time>
      </trkpt>
      <trkpt lat="42.63503" lon="2.42443">
        <ele>340</ele>
        <time>2022-10-01T18:27:38Z</time>
      </trkpt>
      <trkpt lat="42.63501" lon="2.42448">
        <ele>340</ele>
        <time>2022-10-01T18:27:43Z</time>
      </trkpt>
      <trkpt lat="42.63496" lon="2.4245">
        <ele>339</ele>
        <time>2022-10-01T18:27:50Z</time>
      </trkpt>
      <trkpt lat="42.63473" lon="2.42448">
        <ele>335</ele>
        <time>2022-10-01T18:28:21Z</time>
      </trkpt>
      <trkpt lat="42.6345" lon="2.42456">
        <ele>330</ele>
        <time>2022-10-01T18:28:53Z</time>
      </trkpt>
      <trkpt lat="42.63444" lon="2.42449">
        <ele>329</ele>
        <time>2022-10-01T18:29:03Z</time>
      </trkpt>
      <trkpt lat="42.63453" lon="2.42439">
        <ele>330</ele>
        <time>2022-10-01T18:29:19Z</time>
      </trkpt>
      <trkpt lat="42.63475" lon="2.42425">
        <ele>333</ele>
        <time>2022-10-01T18:29:51Z</time>
      </trkpt>
      <trkpt lat="42.63479" lon="2.4242">
        <ele>334</ele>
        <time>2022-10-01T18:29:59Z</time>
      </trkpt>
      <trkpt lat="42.63476" lon="2.42406">
        <ele>334</ele>
        <time>2022-10-01T18:30:13Z</time>
      </trkpt>
      <trkpt lat="42.63466" lon="2.42385">
        <ele>333</ele>
        <time>2022-10-01T18:30:37Z</time>
      </trkpt>
      <trkpt lat="42.63464" lon="2.42362">
        <ele>335</ele>
        <time>2022-10-01T18:31:00Z</time>
      </trkpt>
      <trkpt lat="42.63445" lon="2.42295">
        <ele>337</ele>
        <time>2022-10-01T18:32:11Z</time>
      </trkpt>
      <trkpt lat="42.63443" lon="2.4229">
        <ele>337</ele>
        <time>2022-10-01T18:32:16Z</time>
      </trkpt>
      <trkpt lat="42.63416" lon="2.42283">
        <ele>334</ele>
        <time>2022-10-01T18:32:53Z</time>
      </trkpt>
      <trkpt lat="42.63414" lon="2.42279">
        <ele>335</ele>
        <time>2022-10-01T18:32:58Z</time>
      </trkpt>
      <trkpt lat="42.63414" lon="2.42292">
        <ele>334</ele>
        <time>2022-10-01T18:33:10Z</time>
      </trkpt>
      <trkpt lat="42.63405" lon="2.42297">
        <ele>333</ele>
        <time>2022-10-01T18:33:23Z</time>
      </trkpt>
      <trkpt lat="42.6341" lon="2.42305">
        <ele>333</ele>
        <time>2022-10-01T18:33:34Z</time>
      </trkpt>
      <trkpt lat="42.63409" lon="2.42303">
        <ele>333</ele>
        <time>2022-10-01T18:33:36Z</time>
      </trkpt>
      <trkpt lat="42.63396" lon="2.42311">
        <ele>332</ele>
        <time>2022-10-01T18:33:55Z</time>
      </trkpt>
      <trkpt lat="42.63389" lon="2.42303">
        <ele>332</ele>
        <time>2022-10-01T18:34:07Z</time>
      </trkpt>
      <trkpt lat="42.6339" lon="2.42289">
        <ele>333</ele>
        <time>2022-10-01T18:34:21Z</time>
      </trkpt>
      <trkpt lat="42.63397" lon="2.42274">
        <ele>334</ele>
        <time>2022-10-01T18:34:39Z</time>
      </trkpt>
      <trkpt lat="42.63396" lon="2.42266">
        <ele>335</ele>
        <time>2022-10-01T18:34:47Z</time>
      </trkpt>
      <trkpt lat="42.634" lon="2.42246">
        <ele>336</ele>
        <time>2022-10-01T18:35:07Z</time>
      </trkpt>
      <trkpt lat="42.63396" lon="2.42213">
        <ele>337</ele>
        <time>2022-10-01T18:35:40Z</time>
      </trkpt>
      <trkpt lat="42.63386" lon="2.42189">
        <ele>337</ele>
        <time>2022-10-01T18:36:07Z</time>
      </trkpt>
      <trkpt lat="42.63382" lon="2.4217">
        <ele>338</ele>
        <time>2022-10-01T18:36:26Z</time>
      </trkpt>
      <trkpt lat="42.63376" lon="2.42159">
        <ele>337</ele>
        <time>2022-10-01T18:36:40Z</time>
      </trkpt>
      <trkpt lat="42.63372" lon="2.42156">
        <ele>337</ele>
        <time>2022-10-01T18:36:46Z</time>
      </trkpt>
      <trkpt lat="42.63365" lon="2.4213">
        <ele>337</ele>
        <time>2022-10-01T18:37:13Z</time>
      </trkpt>
      <trkpt lat="42.63363" lon="2.42113">
        <ele>336</ele>
        <time>2022-10-01T18:37:30Z</time>
      </trkpt>
      <trkpt lat="42.6337" lon="2.42095">
        <ele>336</ele>
        <time>2022-10-01T18:37:50Z</time>
      </trkpt>
      <trkpt lat="42.63364" lon="2.42047">
        <ele>336</ele>
        <time>2022-10-01T18:38:38Z</time>
      </trkpt>
      <trkpt lat="42.63365" lon="2.42039">
        <ele>337</ele>
        <time>2022-10-01T18:38:46Z</time>
      </trkpt>
      <trkpt lat="42.63376" lon="2.42022">
        <ele>338</ele>
        <time>2022-10-01T18:39:08Z</time>
      </trkpt>
      <trkpt lat="42.63378" lon="2.42015">
        <ele>338</ele>
        <time>2022-10-01T18:39:15Z</time>
      </trkpt>
      <trkpt lat="42.63375" lon="2.41996">
        <ele>338</ele>
        <time>2022-10-01T18:39:34Z</time>
      </trkpt>
    </trkseg>
  </trk>
</gpx>